METAR AND TAF INFORMATION
METAR FOR GMME
ADDS - METARS form results

(0216 UTC 23 January 2019)
Data provider http://aviationweather.gov/metar/data/
 
METAR text: GMME 230200Z 19006KT 9999 SCT016 BKN026 11/09 Q1023 NOSIG
Conditions at: GMME (RABAT/SALE (RMAF, MA) observed 0200 UTC 23 January 2019
Temperature: 11.0°C (52°F)
Dewpoint: 9.0°C (48°F) [RH = 87%]
Pressure (altimeter): 30.21 inches Hg (1023.0 mb)
Winds: from the S (190 degrees) at 7 MPH (6 knots; 3.1 m/s)
Visibility: 6 or more miles (10+ km)
Ceiling: 2600 feet AGL
Clouds: scattered clouds at 1600 feet AGL
broken clouds at 2600 feet AGL
Weather: no significant weather observed at this time

METAR text: GMME 230130Z 18004KT 9999 SCT016 BKN026 11/09 Q1023 NOSIG
Conditions at: GMME (RABAT/SALE (RMAF, MA) observed 0130 UTC 23 January 2019
Temperature: 11.0°C (52°F)
Dewpoint: 9.0°C (48°F) [RH = 87%]
Pressure (altimeter): 30.21 inches Hg (1023.0 mb)
Winds: from the S (180 degrees) at 5 MPH (4 knots; 2.1 m/s)
Visibility: 6 or more miles (10+ km)
Ceiling: 2600 feet AGL
Clouds: scattered clouds at 1600 feet AGL
broken clouds at 2600 feet AGL
Weather: no significant weather observed at this time

Forecast for: GMME (RABAT/SALE (RMAF, MA)
Text: TAF GMME 222300Z 2300/2406 20006KT 3000 SHRA BKN015TCU BKN030
Forecast period: 0000 UTC 23 January 2019 to 0600 UTC 24 January 2019
Forecast type: FROM: standard forecast or significant change
Winds: from the SSW (200 degrees) at 7 MPH (6 knots; 3.1 m/s)
Visibility: 1.86 miles (2.99 km)
Ceiling: 1500 feet AGL
Clouds: broken clouds at 1500 feet AGL
broken clouds at 3000 feet AGL
Weather: SHRA  (rain showers)
Text: TEMPO 2306/2318 32012KT 5000 RA
Forecast period: 0600 to 1800 UTC 23 January 2019
Forecast type: TEMPORARY: The following changes expected for less than half the time period
Winds: from the NW (320 degrees) at 14 MPH (12 knots; 6.2 m/s)
Visibility: 3 miles (5 km)
Ceiling: unknown
Clouds: missing
Weather: RA  (moderate rain)

 AIRPORT MAP

 RUNWAY INFORMATION
Runway 04 Runway length 11483 ft Runway width 148 ft
Runway elevation 273 ft Runway displaced threshold 0 ft Runway heading 31
Runway 22 Runway length 11483 ft Runway width 148 ft
Runway elevation 240 ft Runway displaced threshold 0 ft Runway heading 211

 AIRPORT FREQUENCIES
Type APP Name APP Frequency 118.9 MHZ
Type TWR Name TWR Frequency 118.3 MHZ

 AIRPORT NEAR NAVIGATION AIDS
Type VOR-DME Name Rabat Frequency 116500 KHZ
Type NDB Name Rabat Frequency 332 KHZ



Powered by Virtual Airlines Manager [v2.6.2]